Open Full Screen Window  High Contrast Mode
Wind Gusting 00 knots
05
November 22, 2014 10:12 PM EST
Present Weather: Mist
Weather Information
Wind Direction
  220 °
Wind Speed
  05 kt (6 mph)
Wind Gust
  00 kt (0 mph)
Altimeter
29.85 in
Visibility
3 SM
Temperature
07° C
45° F
Dewpoint
07° C
45° F
Humidity
100%
1hr Rain Fall
00.00 in.
24hr Rain Fall
00.00 in.
Sky Condition
Overcast @ 300 ft
LIFR

METAR KIKW 230312Z AUTO 22005KT 3SM BR OVC003 07/07 A2985 RMK AO2 T00700066

*Background is not an actual portrayal of the airport.